sensor_id;sensor_type;location;lat;lon;timestamp;P1;durP1;ratioP1;P2;durP2;ratioP2
74044;SDS011;62389;51.412;5.436;2022-08-01T00:00:04;9.97;;;6.20;;
74044;SDS011;62389;51.412;5.436;2022-08-01T00:02:30;12.50;;;7.68;;
74044;SDS011;62389;51.412;5.436;2022-08-01T00:04:56;11.60;;;7.05;;
74044;SDS011;62389;51.412;5.436;2022-08-01T00:07:21;11.40;;;7.30;;
74044;SDS011;62389;51.412;5.436;2022-08-01T00:09:46;14.47;;;7.30;;
74044;SDS011;62389;51.412;5.436;2022-08-01T00:12:11;13.60;;;7.03;;
74044;SDS011;62389;51.412;5.436;2022-08-01T00:14:36;13.27;;;7.53;;
74044;SDS011;62389;51.412;5.436;2022-08-01T00:17:02;12.32;;;7.10;;
74044;SDS011;62389;51.412;5.436;2022-08-01T00:19:27;13.82;;;8.48;;
74044;SDS011;62389;51.412;5.436;2022-08-01T00:21:52;13.57;;;7.75;;
74044;SDS011;62389;51.412;5.436;2022-08-01T00:24:18;12.10;;;7.43;;
74044;SDS011;62389;51.412;5.436;2022-08-01T00:26:43;12.47;;;7.53;;
74044;SDS011;62389;51.412;5.436;2022-08-01T00:29:08;12.30;;;8.17;;
74044;SDS011;62389;51.412;5.436;2022-08-01T00:31:33;15.60;;;8.33;;
74044;SDS011;62389;51.412;5.436;2022-08-01T00:33:58;16.50;;;8.50;;
74044;SDS011;62389;51.412;5.436;2022-08-01T00:36:24;15.70;;;8.65;;
74044;SDS011;62389;51.412;5.436;2022-08-01T00:38:49;16.05;;;8.95;;
74044;SDS011;62389;51.412;5.436;2022-08-01T00:41:14;12.57;;;8.30;;
74044;SDS011;62389;51.412;5.436;2022-08-01T00:43:40;17.83;;;9.85;;
74044;SDS011;62389;51.412;5.436;2022-08-01T00:46:05;19.30;;;10.45;;
74044;SDS011;62389;51.412;5.436;2022-08-01T00:48:30;18.52;;;9.45;;
74044;SDS011;62389;51.412;5.436;2022-08-01T00:50:56;19.40;;;10.00;;
74044;SDS011;62389;51.412;5.436;2022-08-01T00:53:21;20.95;;;9.32;;
74044;SDS011;62389;51.412;5.436;2022-08-01T00:55:46;16.67;;;8.98;;
74044;SDS011;62389;51.412;5.436;2022-08-01T00:58:11;18.45;;;9.75;;
74044;SDS011;62389;51.412;5.436;2022-08-01T01:00:37;19.00;;;10.07;;
74044;SDS011;62389;51.412;5.436;2022-08-01T01:03:02;18.33;;;11.13;;
74044;SDS011;62389;51.412;5.436;2022-08-01T01:05:27;17.37;;;10.07;;
74044;SDS011;62389;51.412;5.436;2022-08-01T01:07:54;19.60;;;10.75;;
74044;SDS011;62389;51.412;5.436;2022-08-01T01:11:04;19.63;;;11.13;;
74044;SDS011;62389;51.412;5.436;2022-08-01T01:15:45;17.83;;;9.63;;
74044;SDS011;62389;51.412;5.436;2022-08-01T01:20:40;17.33;;;10.63;;
74044;SDS011;62389;51.412;5.436;2022-08-01T01:23:15;19.63;;;10.70;;
74044;SDS011;62389;51.412;5.436;2022-08-01T01:25:51;20.67;;;10.27;;
74044;SDS011;62389;51.412;5.436;2022-08-01T01:30:50;20.10;;;11.25;;
74044;SDS011;62389;51.412;5.436;2022-08-01T01:33:16;20.55;;;11.07;;
74044;SDS011;62389;51.412;5.436;2022-08-01T01:35:42;21.58;;;11.23;;
74044;SDS011;62389;51.412;5.436;2022-08-01T01:38:44;22.48;;;11.60;;
74044;SDS011;62389;51.412;5.436;2022-08-01T01:41:01;23.08;;;12.88;;
74044;SDS011;62389;51.412;5.436;2022-08-01T01:43:27;20.10;;;11.43;;
74044;SDS011;62389;51.412;5.436;2022-08-01T01:45:54;23.45;;;13.40;;
74044;SDS011;62389;51.412;5.436;2022-08-01T01:48:20;20.85;;;12.30;;
74044;SDS011;62389;51.412;5.436;2022-08-01T01:50:46;22.35;;;12.95;;
74044;SDS011;62389;51.412;5.436;2022-08-01T01:53:12;24.27;;;12.77;;
74044;SDS011;62389;51.412;5.436;2022-08-01T01:55:38;28.30;;;14.13;;
74044;SDS011;62389;51.412;5.436;2022-08-01T01:58:04;19.88;;;12.00;;
74044;SDS011;62389;51.412;5.436;2022-08-01T02:00:30;24.75;;;13.75;;
74044;SDS011;62389;51.412;5.436;2022-08-01T02:02:56;25.50;;;13.00;;
74044;SDS011;62389;51.412;5.436;2022-08-01T02:05:22;23.50;;;12.52;;
74044;SDS011;62389;51.412;5.436;2022-08-01T02:07:47;23.65;;;13.77;;
74044;SDS011;62389;51.412;5.436;2022-08-01T02:10:14;23.58;;;12.73;;
74044;SDS011;62389;51.412;5.436;2022-08-01T02:12:41;21.95;;;12.10;;
74044;SDS011;62389;51.412;5.436;2022-08-01T02:15:07;22.55;;;12.02;;
74044;SDS011;62389;51.412;5.436;2022-08-01T02:17:34;21.88;;;12.07;;
74044;SDS011;62389;51.412;5.436;2022-08-01T02:20:02;22.10;;;12.10;;
74044;SDS011;62389;51.412;5.436;2022-08-01T02:22:32;24.00;;;12.57;;
74044;SDS011;62389;51.412;5.436;2022-08-01T02:25:03;23.75;;;12.55;;
74044;SDS011;62389;51.412;5.436;2022-08-01T02:27:34;22.77;;;11.90;;
74044;SDS011;62389;51.412;5.436;2022-08-01T02:30:04;23.25;;;13.60;;
74044;SDS011;62389;51.412;5.436;2022-08-01T02:35:04;25.85;;;13.57;;
74044;SDS011;62389;51.412;5.436;2022-08-01T02:37:33;27.10;;;14.52;;
74044;SDS011;62389;51.412;5.436;2022-08-01T02:39:59;22.67;;;13.90;;
74044;SDS011;62389;51.412;5.436;2022-08-01T02:42:24;24.10;;;13.27;;
74044;SDS011;62389;51.412;5.436;2022-08-01T02:44:51;25.05;;;13.02;;
74044;SDS011;62389;51.412;5.436;2022-08-01T02:47:17;22.77;;;14.02;;
74044;SDS011;62389;51.412;5.436;2022-08-01T02:49:45;23.20;;;13.45;;
74044;SDS011;62389;51.412;5.436;2022-08-01T02:52:12;21.35;;;13.82;;
74044;SDS011;62389;51.412;5.436;2022-08-01T02:54:37;24.67;;;14.32;;
74044;SDS011;62389;51.412;5.436;2022-08-01T02:57:04;24.42;;;13.30;;
74044;SDS011;62389;51.412;5.436;2022-08-01T02:59:31;25.55;;;13.60;;
74044;SDS011;62389;51.412;5.436;2022-08-01T03:01:57;26.73;;;14.18;;
74044;SDS011;62389;51.412;5.436;2022-08-01T03:04:24;27.35;;;15.90;;
74044;SDS011;62389;51.412;5.436;2022-08-01T03:06:50;23.92;;;12.80;;
74044;SDS011;62389;51.412;5.436;2022-08-01T03:09:17;28.23;;;14.55;;
74044;SDS011;62389;51.412;5.436;2022-08-01T03:11:43;26.88;;;14.60;;
74044;SDS011;62389;51.412;5.436;2022-08-01T03:14:10;25.17;;;13.88;;
74044;SDS011;62389;51.412;5.436;2022-08-01T03:16:36;26.33;;;15.05;;
74044;SDS011;62389;51.412;5.436;2022-08-01T03:19:03;27.38;;;15.10;;
74044;SDS011;62389;51.412;5.436;2022-08-01T03:21:28;24.30;;;13.27;;
74044;SDS011;62389;51.412;5.436;2022-08-01T03:23:54;25.25;;;14.40;;
74044;SDS011;62389;51.412;5.436;2022-08-01T03:26:23;25.70;;;14.13;;
74044;SDS011;62389;51.412;5.436;2022-08-01T03:28:49;27.45;;;14.20;;
74044;SDS011;62389;51.412;5.436;2022-08-01T03:31:16;21.23;;;12.80;;
74044;SDS011;62389;51.412;5.436;2022-08-01T03:33:41;23.55;;;13.43;;
74044;SDS011;62389;51.412;5.436;2022-08-01T03:36:07;22.60;;;12.47;;
74044;SDS011;62389;51.412;5.436;2022-08-01T03:38:34;23.20;;;13.43;;
74044;SDS011;62389;51.412;5.436;2022-08-01T03:41:02;23.15;;;13.50;;
74044;SDS011;62389;51.412;5.436;2022-08-01T03:43:30;22.48;;;12.10;;
74044;SDS011;62389;51.412;5.436;2022-08-01T03:45:58;24.95;;;12.27;;
74044;SDS011;62389;51.412;5.436;2022-08-01T03:48:27;17.27;;;10.45;;
74044;SDS011;62389;51.412;5.436;2022-08-01T03:50:53;18.67;;;11.85;;
74044;SDS011;62389;51.412;5.436;2022-08-01T03:53:20;20.70;;;10.75;;
74044;SDS011;62389;51.412;5.436;2022-08-01T03:55:46;18.58;;;11.90;;
74044;SDS011;62389;51.412;5.436;2022-08-01T03:58:12;17.92;;;10.18;;
74044;SDS011;62389;51.412;5.436;2022-08-01T04:00:38;21.38;;;11.18;;
74044;SDS011;62389;51.412;5.436;2022-08-01T04:03:04;17.38;;;9.93;;
74044;SDS011;62389;51.412;5.436;2022-08-01T04:05:30;18.42;;;10.85;;
74044;SDS011;62389;51.412;5.436;2022-08-01T04:07:56;20.08;;;12.77;;
74044;SDS011;62389;51.412;5.436;2022-08-01T04:10:22;19.90;;;11.50;;
74044;SDS011;62389;51.412;5.436;2022-08-01T04:12:48;20.50;;;10.70;;
74044;SDS011;62389;51.412;5.436;2022-08-01T04:15:13;19.48;;;10.10;;
74044;SDS011;62389;51.412;5.436;2022-08-01T04:17:39;20.15;;;12.52;;
74044;SDS011;62389;51.412;5.436;2022-08-01T04:20:04;21.15;;;11.35;;
74044;SDS011;62389;51.412;5.436;2022-08-01T04:22:29;21.52;;;11.35;;
74044;SDS011;62389;51.412;5.436;2022-08-01T04:24:55;21.13;;;11.98;;
74044;SDS011;62389;51.412;5.436;2022-08-01T04:27:22;22.20;;;10.98;;
74044;SDS011;62389;51.412;5.436;2022-08-01T04:29:49;22.45;;;12.50;;
74044;SDS011;62389;51.412;5.436;2022-08-01T04:32:16;21.60;;;12.00;;
74044;SDS011;62389;51.412;5.436;2022-08-01T04:34:43;22.50;;;12.85;;
74044;SDS011;62389;51.412;5.436;2022-08-01T04:37:11;20.55;;;11.63;;
74044;SDS011;62389;51.412;5.436;2022-08-01T04:39:37;21.40;;;11.07;;
74044;SDS011;62389;51.412;5.436;2022-08-01T04:42:04;22.80;;;12.52;;
74044;SDS011;62389;51.412;5.436;2022-08-01T04:44:29;23.17;;;14.70;;
74044;SDS011;62389;51.412;5.436;2022-08-01T04:46:57;27.15;;;14.80;;
74044;SDS011;62389;51.412;5.436;2022-08-01T04:49:23;25.92;;;15.32;;
74044;SDS011;62389;51.412;5.436;2022-08-01T04:51:52;25.38;;;14.65;;
74044;SDS011;62389;51.412;5.436;2022-08-01T04:54:22;25.60;;;14.60;;
74044;SDS011;62389;51.412;5.436;2022-08-01T04:56:47;24.42;;;13.48;;
74044;SDS011;62389;51.412;5.436;2022-08-01T04:59:13;24.40;;;14.83;;
74044;SDS011;62389;51.412;5.436;2022-08-01T05:01:56;26.65;;;14.93;;
74044;SDS011;62389;51.412;5.436;2022-08-01T05:04:21;24.47;;;14.53;;
74044;SDS011;62389;51.412;5.436;2022-08-01T05:06:47;28.30;;;14.67;;
74044;SDS011;62389;51.412;5.436;2022-08-01T05:09:12;23.40;;;12.50;;
74044;SDS011;62389;51.412;5.436;2022-08-01T05:11:37;26.63;;;13.60;;
74044;SDS011;62389;51.412;5.436;2022-08-01T05:14:02;26.70;;;15.13;;
74044;SDS011;62389;51.412;5.436;2022-08-01T05:16:27;26.17;;;14.40;;
74044;SDS011;62389;51.412;5.436;2022-08-01T05:18:53;25.50;;;13.27;;
74044;SDS011;62389;51.412;5.436;2022-08-01T05:21:18;26.60;;;14.97;;
74044;SDS011;62389;51.412;5.436;2022-08-01T05:23:43;25.23;;;13.77;;
74044;SDS011;62389;51.412;5.436;2022-08-01T05:26:09;26.53;;;14.33;;
74044;SDS011;62389;51.412;5.436;2022-08-01T05:28:35;28.60;;;14.75;;
74044;SDS011;62389;51.412;5.436;2022-08-01T05:31:00;28.10;;;15.03;;
74044;SDS011;62389;51.412;5.436;2022-08-01T05:33:25;26.45;;;14.18;;
74044;SDS011;62389;51.412;5.436;2022-08-01T05:35:50;25.77;;;14.17;;
74044;SDS011;62389;51.412;5.436;2022-08-01T05:38:16;25.95;;;15.13;;
74044;SDS011;62389;51.412;5.436;2022-08-01T05:40:41;23.70;;;13.90;;
74044;SDS011;62389;51.412;5.436;2022-08-01T05:43:06;24.53;;;13.07;;
74044;SDS011;62389;51.412;5.436;2022-08-01T05:45:31;23.43;;;13.33;;
74044;SDS011;62389;51.412;5.436;2022-08-01T05:47:57;25.17;;;13.97;;
74044;SDS011;62389;51.412;5.436;2022-08-01T05:50:22;24.13;;;14.00;;
74044;SDS011;62389;51.412;5.436;2022-08-01T05:52:47;23.97;;;12.77;;
74044;SDS011;62389;51.412;5.436;2022-08-01T05:55:12;22.73;;;12.80;;
74044;SDS011;62389;51.412;5.436;2022-08-01T05:57:37;22.10;;;11.40;;
74044;SDS011;62389;51.412;5.436;2022-08-01T06:00:03;21.93;;;11.87;;
74044;SDS011;62389;51.412;5.436;2022-08-01T06:02:28;22.23;;;12.50;;
74044;SDS011;62389;51.412;5.436;2022-08-01T06:04:53;20.23;;;11.05;;
74044;SDS011;62389;51.412;5.436;2022-08-01T06:07:18;17.63;;;10.20;;
74044;SDS011;62389;51.412;5.436;2022-08-01T06:09:44;21.23;;;11.73;;
74044;SDS011;62389;51.412;5.436;2022-08-01T06:12:09;18.40;;;10.90;;
74044;SDS011;62389;51.412;5.436;2022-08-01T06:14:34;19.27;;;11.53;;
74044;SDS011;62389;51.412;5.436;2022-08-01T06:16:59;13.65;;;7.45;;
74044;SDS011;62389;51.412;5.436;2022-08-01T06:19:25;15.10;;;8.00;;
74044;SDS011;62389;51.412;5.436;2022-08-01T06:21:51;12.80;;;7.13;;
74044;SDS011;62389;51.412;5.436;2022-08-01T06:24:16;12.60;;;7.00;;
74044;SDS011;62389;51.412;5.436;2022-08-01T06:26:41;11.37;;;6.17;;
74044;SDS011;62389;51.412;5.436;2022-08-01T06:29:08;11.93;;;6.95;;
74044;SDS011;62389;51.412;5.436;2022-08-01T06:31:33;14.70;;;7.63;;
74044;SDS011;62389;51.412;5.436;2022-08-01T06:33:58;12.57;;;8.57;;
74044;SDS011;62389;51.412;5.436;2022-08-01T06:36:24;12.35;;;7.85;;
74044;SDS011;62389;51.412;5.436;2022-08-01T06:38:50;14.63;;;9.25;;
74044;SDS011;62389;51.412;5.436;2022-08-01T06:41:15;13.27;;;8.03;;
74044;SDS011;62389;51.412;5.436;2022-08-01T06:43:40;13.17;;;7.10;;
74044;SDS011;62389;51.412;5.436;2022-08-01T06:46:06;12.93;;;7.30;;
74044;SDS011;62389;51.412;5.436;2022-08-01T06:48:31;12.57;;;7.33;;
74044;SDS011;62389;51.412;5.436;2022-08-01T06:50:56;10.37;;;5.43;;
74044;SDS011;62389;51.412;5.436;2022-08-01T06:53:37;8.60;;;5.13;;
74044;SDS011;62389;51.412;5.436;2022-08-01T06:56:02;9.07;;;5.88;;
74044;SDS011;62389;51.412;5.436;2022-08-01T06:58:28;7.57;;;4.22;;
74044;SDS011;62389;51.412;5.436;2022-08-01T07:00:53;6.65;;;3.63;;
74044;SDS011;62389;51.412;5.436;2022-08-01T07:03:18;4.47;;;2.67;;
74044;SDS011;62389;51.412;5.436;2022-08-01T07:05:43;5.43;;;2.90;;
74044;SDS011;62389;51.412;5.436;2022-08-01T07:08:09;4.27;;;2.97;;
74044;SDS011;62389;51.412;5.436;2022-08-01T07:10:34;3.67;;;2.60;;
74044;SDS011;62389;51.412;5.436;2022-08-01T07:12:59;4.10;;;2.80;;
74044;SDS011;62389;51.412;5.436;2022-08-01T07:15:24;4.23;;;2.43;;
74044;SDS011;62389;51.412;5.436;2022-08-01T07:17:51;4.85;;;2.75;;
74044;SDS011;62389;51.412;5.436;2022-08-01T07:20:17;4.03;;;2.83;;
74044;SDS011;62389;51.412;5.436;2022-08-01T07:22:42;5.32;;;2.75;;
74044;SDS011;62389;51.412;5.436;2022-08-01T07:25:08;3.80;;;2.43;;
74044;SDS011;62389;51.412;5.436;2022-08-01T07:27:34;5.75;;;2.83;;
74044;SDS011;62389;51.412;5.436;2022-08-01T07:29:59;3.67;;;2.38;;
74044;SDS011;62389;51.412;5.436;2022-08-01T07:32:24;4.20;;;2.42;;
74044;SDS011;62389;51.412;5.436;2022-08-01T07:34:50;5.37;;;2.17;;
74044;SDS011;62389;51.412;5.436;2022-08-01T07:37:15;3.53;;;2.17;;
74044;SDS011;62389;51.412;5.436;2022-08-01T07:39:41;3.35;;;2.13;;
74044;SDS011;62389;51.412;5.436;2022-08-01T07:42:06;3.00;;;1.80;;
74044;SDS011;62389;51.412;5.436;2022-08-01T07:44:31;4.25;;;2.10;;
74044;SDS011;62389;51.412;5.436;2022-08-01T07:46:56;2.97;;;1.75;;
74044;SDS011;62389;51.412;5.436;2022-08-01T07:49:22;2.70;;;1.90;;
74044;SDS011;62389;51.412;5.436;2022-08-01T07:51:47;2.80;;;1.83;;
74044;SDS011;62389;51.412;5.436;2022-08-01T07:54:12;2.72;;;1.88;;
74044;SDS011;62389;51.412;5.436;2022-08-01T07:56:37;3.77;;;1.80;;
74044;SDS011;62389;51.412;5.436;2022-08-01T07:59:03;3.13;;;2.10;;
74044;SDS011;62389;51.412;5.436;2022-08-01T08:01:28;3.47;;;2.00;;
74044;SDS011;62389;51.412;5.436;2022-08-01T08:03:53;4.80;;;1.90;;
74044;SDS011;62389;51.412;5.436;2022-08-01T08:06:18;4.80;;;2.10;;
74044;SDS011;62389;51.412;5.436;2022-08-01T08:08:43;3.83;;;2.10;;
74044;SDS011;62389;51.412;5.436;2022-08-01T08:11:09;2.80;;;1.67;;
74044;SDS011;62389;51.412;5.436;2022-08-01T08:13:34;3.83;;;2.23;;
74044;SDS011;62389;51.412;5.436;2022-08-01T08:15:59;2.53;;;1.93;;
74044;SDS011;62389;51.412;5.436;2022-08-01T08:18:25;4.20;;;2.40;;
74044;SDS011;62389;51.412;5.436;2022-08-01T08:20:50;2.67;;;2.20;;
74044;SDS011;62389;51.412;5.436;2022-08-01T08:23:15;5.63;;;2.97;;
74044;SDS011;62389;51.412;5.436;2022-08-01T08:25:59;5.13;;;3.20;;
74044;SDS011;62389;51.412;5.436;2022-08-01T08:28:24;3.63;;;2.97;;
74044;SDS011;62389;51.412;5.436;2022-08-01T08:30:50;4.63;;;2.87;;
74044;SDS011;62389;51.412;5.436;2022-08-01T08:33:15;6.33;;;3.13;;
74044;SDS011;62389;51.412;5.436;2022-08-01T08:35:40;4.30;;;3.27;;
74044;SDS011;62389;51.412;5.436;2022-08-01T08:38:06;3.97;;;3.30;;
74044;SDS011;62389;51.412;5.436;2022-08-01T08:40:31;5.03;;;3.53;;
74044;SDS011;62389;51.412;5.436;2022-08-01T08:42:59;4.78;;;3.22;;
74044;SDS011;62389;51.412;5.436;2022-08-01T08:45:25;3.65;;;2.58;;
74044;SDS011;62389;51.412;5.436;2022-08-01T08:47:51;4.88;;;2.95;;
74044;SDS011;62389;51.412;5.436;2022-08-01T08:50:17;3.72;;;3.15;;
74044;SDS011;62389;51.412;5.436;2022-08-01T08:52:42;3.90;;;2.50;;
74044;SDS011;62389;51.412;5.436;2022-08-01T08:55:08;3.42;;;2.47;;
74044;SDS011;62389;51.412;5.436;2022-08-01T08:57:33;3.00;;;2.50;;
74044;SDS011;62389;51.412;5.436;2022-08-01T08:59:59;2.78;;;2.35;;
74044;SDS011;62389;51.412;5.436;2022-08-01T09:02:25;2.80;;;2.40;;
74044;SDS011;62389;51.412;5.436;2022-08-01T09:04:50;3.37;;;2.10;;
74044;SDS011;62389;51.412;5.436;2022-08-01T09:07:15;3.33;;;2.53;;
74044;SDS011;62389;51.412;5.436;2022-08-01T09:09:41;2.65;;;2.13;;
74044;SDS011;62389;51.412;5.436;2022-08-01T09:12:06;4.25;;;2.60;;
74044;SDS011;62389;51.412;5.436;2022-08-01T09:14:31;3.28;;;2.60;;
74044;SDS011;62389;51.412;5.436;2022-08-01T09:17:07;4.63;;;2.78;;
74044;SDS011;62389;51.412;5.436;2022-08-01T09:19:41;4.25;;;2.42;;
74044;SDS011;62389;51.412;5.436;2022-08-01T09:22:08;3.60;;;2.40;;
74044;SDS011;62389;51.412;5.436;2022-08-01T09:24:34;2.40;;;2.00;;
74044;SDS011;62389;51.412;5.436;2022-08-01T09:26:59;2.88;;;2.38;;
74044;SDS011;62389;51.412;5.436;2022-08-01T09:29:29;2.85;;;1.90;;
74044;SDS011;62389;51.412;5.436;2022-08-01T09:31:55;1.98;;;1.42;;
74044;SDS011;62389;51.412;5.436;2022-08-01T09:34:30;3.00;;;1.83;;
74044;SDS011;62389;51.412;5.436;2022-08-01T09:36:58;2.33;;;1.70;;
74044;SDS011;62389;51.412;5.436;2022-08-01T09:41:49;3.60;;;2.10;;
74044;SDS011;62389;51.412;5.436;2022-08-01T09:46:52;2.67;;;1.93;;
74044;SDS011;62389;51.412;5.436;2022-08-01T09:49:31;3.35;;;2.10;;
74044;SDS011;62389;51.412;5.436;2022-08-01T09:51:57;3.55;;;2.25;;
74044;SDS011;62389;51.412;5.436;2022-08-01T09:54:30;3.28;;;2.35;;
74044;SDS011;62389;51.412;5.436;2022-08-01T09:56:57;2.65;;;2.10;;
74044;SDS011;62389;51.412;5.436;2022-08-01T09:59:35;2.83;;;2.00;;
74044;SDS011;62389;51.412;5.436;2022-08-01T10:02:02;2.80;;;1.70;;
74044;SDS011;62389;51.412;5.436;2022-08-01T10:04:27;2.40;;;1.83;;
74044;SDS011;62389;51.412;5.436;2022-08-01T10:06:52;2.63;;;2.10;;
74044;SDS011;62389;51.412;5.436;2022-08-01T10:09:32;3.45;;;2.00;;
74044;SDS011;62389;51.412;5.436;2022-08-01T10:11:58;2.30;;;1.52;;
74044;SDS011;62389;51.412;5.436;2022-08-01T10:14:24;2.10;;;1.10;;
74044;SDS011;62389;51.412;5.436;2022-08-01T10:16:50;2.03;;;1.42;;
74044;SDS011;62389;51.412;5.436;2022-08-01T10:19:16;2.03;;;1.83;;
74044;SDS011;62389;51.412;5.436;2022-08-01T10:21:41;2.33;;;1.90;;
74044;SDS011;62389;51.412;5.436;2022-08-01T10:24:09;2.80;;;2.60;;
74044;SDS011;62389;51.412;5.436;2022-08-01T10:26:35;3.13;;;2.13;;
74044;SDS011;62389;51.412;5.436;2022-08-01T10:29:01;2.60;;;2.17;;
74044;SDS011;62389;51.412;5.436;2022-08-01T10:31:27;2.80;;;1.80;;
74044;SDS011;62389;51.412;5.436;2022-08-01T10:33:56;2.70;;;1.50;;
74044;SDS011;62389;51.412;5.436;2022-08-01T10:36:22;2.53;;;1.48;;
74044;SDS011;62389;51.412;5.436;2022-08-01T10:38:48;1.98;;;1.52;;
74044;SDS011;62389;51.412;5.436;2022-08-01T10:41:13;3.15;;;1.40;;
74044;SDS011;62389;51.412;5.436;2022-08-01T10:43:42;4.25;;;1.77;;
74044;SDS011;62389;51.412;5.436;2022-08-01T10:46:07;2.13;;;1.52;;
74044;SDS011;62389;51.412;5.436;2022-08-01T10:51:05;1.85;;;1.30;;
74044;SDS011;62389;51.412;5.436;2022-08-01T10:53:30;2.13;;;1.40;;
74044;SDS011;62389;51.412;5.436;2022-08-01T10:58:25;2.33;;;1.40;;
74044;SDS011;62389;51.412;5.436;2022-08-01T11:03:58;2.30;;;1.40;;
74044;SDS011;62389;51.412;5.436;2022-08-01T11:06:26;2.75;;;1.17;;
74044;SDS011;62389;51.412;5.436;2022-08-01T11:08:53;2.90;;;1.30;;
74044;SDS011;62389;51.412;5.436;2022-08-01T11:11:19;2.05;;;1.35;;
74044;SDS011;62389;51.412;5.436;2022-08-01T11:16:37;2.40;;;1.20;;
74044;SDS011;62389;51.412;5.436;2022-08-01T11:19:03;3.67;;;1.58;;
74044;SDS011;62389;51.412;5.436;2022-08-01T11:24:13;2.10;;;1.25;;
74044;SDS011;62389;51.412;5.436;2022-08-01T11:26:38;1.73;;;1.20;;
74044;SDS011;62389;51.412;5.436;2022-08-01T11:29:13;2.10;;;1.27;;
74044;SDS011;62389;51.412;5.436;2022-08-01T11:31:39;1.83;;;1.10;;
74044;SDS011;62389;51.412;5.436;2022-08-01T11:34:04;3.40;;;1.50;;
74044;SDS011;62389;51.412;5.436;2022-08-01T11:36:30;1.88;;;1.20;;
74044;SDS011;62389;51.412;5.436;2022-08-01T11:41:31;2.63;;;1.45;;
74044;SDS011;62389;51.412;5.436;2022-08-01T11:54:25;2.20;;;1.50;;
74044;SDS011;62389;51.412;5.436;2022-08-01T11:56:53;3.67;;;1.52;;
74044;SDS011;62389;51.412;5.436;2022-08-01T11:59:18;2.50;;;1.70;;
74044;SDS011;62389;51.412;5.436;2022-08-01T12:01:44;3.10;;;1.38;;
74044;SDS011;62389;51.412;5.436;2022-08-01T12:04:09;3.27;;;1.57;;
74044;SDS011;62389;51.412;5.436;2022-08-01T12:06:34;2.73;;;1.20;;
74044;SDS011;62389;51.412;5.436;2022-08-01T12:09:16;2.70;;;1.40;;
74044;SDS011;62389;51.412;5.436;2022-08-01T12:11:41;1.80;;;1.40;;
74044;SDS011;62389;51.412;5.436;2022-08-01T12:14:07;2.20;;;1.40;;
74044;SDS011;62389;51.412;5.436;2022-08-01T12:16:32;3.73;;;1.27;;
74044;SDS011;62389;51.412;5.436;2022-08-01T12:18:57;2.63;;;1.30;;
74044;SDS011;62389;51.412;5.436;2022-08-01T12:21:23;2.20;;;1.20;;
74044;SDS011;62389;51.412;5.436;2022-08-01T12:23:59;2.10;;;1.30;;
74044;SDS011;62389;51.412;5.436;2022-08-01T12:26:38;2.83;;;1.02;;
74044;SDS011;62389;51.412;5.436;2022-08-01T12:29:03;3.65;;;1.40;;
74044;SDS011;62389;51.412;5.436;2022-08-01T12:31:34;8.10;;;1.83;;
74044;SDS011;62389;51.412;5.436;2022-08-01T12:36:43;2.30;;;1.30;;
74044;SDS011;62389;51.412;5.436;2022-08-01T12:39:09;3.03;;;1.20;;
74044;SDS011;62389;51.412;5.436;2022-08-01T12:41:35;2.83;;;1.47;;
74044;SDS011;62389;51.412;5.436;2022-08-01T12:44:01;2.70;;;1.48;;
74044;SDS011;62389;51.412;5.436;2022-08-01T12:46:26;3.47;;;1.37;;
74044;SDS011;62389;51.412;5.436;2022-08-01T12:48:52;2.92;;;1.25;;
74044;SDS011;62389;51.412;5.436;2022-08-01T12:51:17;5.00;;;1.52;;
74044;SDS011;62389;51.412;5.436;2022-08-01T12:53:42;2.58;;;1.20;;
74044;SDS011;62389;51.412;5.436;2022-08-01T12:56:08;3.42;;;1.63;;
74044;SDS011;62389;51.412;5.436;2022-08-01T12:58:35;3.17;;;1.30;;
74044;SDS011;62389;51.412;5.436;2022-08-01T13:01:10;3.42;;;1.30;;
74044;SDS011;62389;51.412;5.436;2022-08-01T13:03:35;4.18;;;1.23;;
74044;SDS011;62389;51.412;5.436;2022-08-01T13:06:01;3.58;;;1.80;;
74044;SDS011;62389;51.412;5.436;2022-08-01T13:08:29;3.95;;;1.52;;
74044;SDS011;62389;51.412;5.436;2022-08-01T13:11:02;2.58;;;1.65;;
74044;SDS011;62389;51.412;5.436;2022-08-01T13:13:37;3.17;;;1.40;;
74044;SDS011;62389;51.412;5.436;2022-08-01T13:16:03;2.63;;;1.40;;
74044;SDS011;62389;51.412;5.436;2022-08-01T13:18:30;3.60;;;1.52;;
74044;SDS011;62389;51.412;5.436;2022-08-01T13:21:17;5.28;;;2.00;;
74044;SDS011;62389;51.412;5.436;2022-08-01T13:24:02;2.40;;;1.45;;
74044;SDS011;62389;51.412;5.436;2022-08-01T13:29:43;3.33;;;1.52;;
74044;SDS011;62389;51.412;5.436;2022-08-01T13:34:35;5.30;;;1.70;;
74044;SDS011;62389;51.412;5.436;2022-08-01T13:37:00;5.00;;;1.92;;
74044;SDS011;62389;51.412;5.436;2022-08-01T13:39:27;3.08;;;1.45;;
74044;SDS011;62389;51.412;5.436;2022-08-01T13:42:09;4.80;;;1.90;;
74044;SDS011;62389;51.412;5.436;2022-08-01T13:44:35;3.53;;;1.70;;
74044;SDS011;62389;51.412;5.436;2022-08-01T13:47:01;2.93;;;2.13;;
74044;SDS011;62389;51.412;5.436;2022-08-01T13:51:52;5.25;;;2.33;;
74044;SDS011;62389;51.412;5.436;2022-08-01T13:54:17;3.22;;;1.80;;
74044;SDS011;62389;51.412;5.436;2022-08-01T13:56:43;5.30;;;2.10;;
74044;SDS011;62389;51.412;5.436;2022-08-01T13:59:08;4.60;;;1.88;;
74044;SDS011;62389;51.412;5.436;2022-08-01T14:01:33;4.47;;;2.20;;
74044;SDS011;62389;51.412;5.436;2022-08-01T14:03:59;4.25;;;2.33;;
74044;SDS011;62389;51.412;5.436;2022-08-01T14:06:24;4.93;;;1.98;;
74044;SDS011;62389;51.412;5.436;2022-08-01T14:08:49;8.03;;;2.60;;
74044;SDS011;62389;51.412;5.436;2022-08-01T14:11:15;3.60;;;1.90;;
74044;SDS011;62389;51.412;5.436;2022-08-01T14:13:40;5.90;;;2.40;;
74044;SDS011;62389;51.412;5.436;2022-08-01T14:16:06;3.43;;;2.13;;
74044;SDS011;62389;51.412;5.436;2022-08-01T14:18:31;4.60;;;2.75;;
74044;SDS011;62389;51.412;5.436;2022-08-01T14:20:56;5.93;;;2.83;;
74044;SDS011;62389;51.412;5.436;2022-08-01T14:23:21;3.97;;;2.50;;
74044;SDS011;62389;51.412;5.436;2022-08-01T14:25:47;6.05;;;3.03;;
74044;SDS011;62389;51.412;5.436;2022-08-01T14:28:12;3.72;;;2.40;;
74044;SDS011;62389;51.412;5.436;2022-08-01T14:30:37;5.57;;;3.08;;
74044;SDS011;62389;51.412;5.436;2022-08-01T14:33:03;3.47;;;2.30;;
74044;SDS011;62389;51.412;5.436;2022-08-01T14:35:28;4.28;;;2.50;;
74044;SDS011;62389;51.412;5.436;2022-08-01T14:37:53;4.03;;;2.35;;
74044;SDS011;62389;51.412;5.436;2022-08-01T14:40:18;4.13;;;2.20;;
74044;SDS011;62389;51.412;5.436;2022-08-01T14:42:44;4.53;;;2.37;;
74044;SDS011;62389;51.412;5.436;2022-08-01T14:45:09;4.03;;;2.47;;
74044;SDS011;62389;51.412;5.436;2022-08-01T14:47:39;4.50;;;1.92;;
74044;SDS011;62389;51.412;5.436;2022-08-01T14:50:05;7.32;;;2.40;;
74044;SDS011;62389;51.412;5.436;2022-08-01T14:54:56;4.82;;;2.20;;
74044;SDS011;62389;51.412;5.436;2022-08-01T14:57:21;6.07;;;2.20;;
74044;SDS011;62389;51.412;5.436;2022-08-01T14:59:46;4.13;;;2.10;;
74044;SDS011;62389;51.412;5.436;2022-08-01T15:02:12;3.50;;;2.00;;
74044;SDS011;62389;51.412;5.436;2022-08-01T15:04:41;5.15;;;1.92;;
74044;SDS011;62389;51.412;5.436;2022-08-01T15:07:06;3.30;;;1.97;;
74044;SDS011;62389;51.412;5.436;2022-08-01T15:09:32;4.37;;;2.10;;
74044;SDS011;62389;51.412;5.436;2022-08-01T15:11:57;3.63;;;2.00;;
74044;SDS011;62389;51.412;5.436;2022-08-01T15:17:07;6.57;;;1.95;;
74044;SDS011;62389;51.412;5.436;2022-08-01T15:19:33;5.07;;;2.17;;
74044;SDS011;62389;51.412;5.436;2022-08-01T15:21:58;4.57;;;2.20;;
74044;SDS011;62389;51.412;5.436;2022-08-01T15:24:23;4.93;;;1.90;;
74044;SDS011;62389;51.412;5.436;2022-08-01T15:26:48;3.83;;;2.20;;
74044;SDS011;62389;51.412;5.436;2022-08-01T15:29:13;6.25;;;2.40;;
74044;SDS011;62389;51.412;5.436;2022-08-01T15:31:40;4.85;;;2.05;;